Time;durP1;ratioP1;P1;durP2;ratioP2;P2;SDS_P1;SDS_P2;PMS_P1;PMS_P2;Temp;Humidity;BMP_temperature;BMP_pressure;BME280_temperature;BME280_humidity;BME280_pressure;Samples;Min_cycle;Max_cycle;Signal;HPM_P1;HPM_P2
2021/07/07 00:02:13;;;;;;;0.10;0.10;;;;;;;;;;5049307;28;20037;-87
2021/07/07 00:04:39;;;;;;;0.20;0.20;;;;;;;;;;5032644;28;20045;-87
2021/07/07 00:07:05;;;;;;;0.10;0.10;;;;;;;;;;5049150;28;20116;-87
2021/07/07 00:09:31;;;;;;;0.10;0.10;;;;;;;;;;5032888;28;20046;-87
2021/07/07 00:11:57;;;;;;;0.17;0.17;;;;;;;;;;5048810;28;20042;-88
2021/07/07 00:14:23;;;;;;;0.10;0.10;;;;;;;;;;5049040;28;20041;-87
2021/07/07 00:16:49;;;;;;;0.10;0.10;;;;;;;;;;5048650;28;20053;-87
2021/07/07 00:19:17;;;;;;;0.10;0.10;;;;;;;;;;5032496;28;20053;-87
2021/07/07 00:21:43;;;;;;;0.10;0.10;;;;;;;;;;5048812;28;20037;-87
2021/07/07 00:24:09;;;;;;;0.10;0.10;;;;;;;;;;5048850;28;20037;-87
2021/07/07 00:26:35;;;;;;;0.10;0.10;;;;;;;;;;5032172;28;20043;-87
2021/07/07 00:29:01;;;;;;;0.10;0.10;;;;;;;;;;5048923;28;20037;-87
2021/07/07 00:31:27;;;;;;;0.10;0.10;;;;;;;;;;5032097;28;20129;-87
2021/07/07 00:33:53;;;;;;;0.10;0.10;;;;;;;;;;5033335;28;20112;-87
2021/07/07 00:36:19;;;;;;;0.10;0.10;;;;;;;;;;5032116;28;20103;-87
2021/07/07 00:38:45;;;;;;;0.20;0.20;;;;;;;;;;5048506;28;20448;-86
2021/07/07 00:41:11;;;;;;;0.10;0.10;;;;;;;;;;5048330;28;20046;-87
2021/07/07 00:43:38;;;;;;;0.10;0.10;;;;;;;;;;5032138;28;20037;-88
2021/07/07 00:46:04;;;;;;;0.10;0.10;;;;;;;;;;5031987;28;20040;-88
2021/07/07 00:48:30;;;;;;;0.10;0.10;;;;;;;;;;5031745;28;20033;-87
2021/07/07 00:50:59;;;;;;;0.10;0.10;;;;;;;;;;5031668;28;20070;-87
2021/07/07 00:53:25;;;;;;;0.10;0.10;;;;;;;;;;5047142;28;20041;-87
2021/07/07 00:55:51;;;;;;;0.10;0.10;;;;;;;;;;5048172;28;20485;-87
2021/07/07 00:58:17;;;;;;;0.10;0.10;;;;;;;;;;5031726;28;20041;-87
2021/07/07 01:00:43;;;;;;;0.10;0.10;;;;;;;;;;5048100;28;20037;-87
2021/07/07 01:03:09;;;;;;;0.10;0.10;;;;;;;;;;5048366;28;20477;-87
2021/07/07 01:05:35;;;;;;;0.10;0.10;;;;;;;;;;5031621;28;20099;-86
2021/07/07 01:08:01;;;;;;;0.10;0.10;;;;;;;;;;5048036;28;20461;-87
2021/07/07 01:10:28;;;;;;;0.10;0.10;;;;;;;;;;5048031;28;20482;-87
2021/07/07 01:12:54;;;;;;;0.10;0.10;;;;;;;;;;5047880;28;20037;-87
2021/07/07 01:15:20;;;;;;;0.10;0.10;;;;;;;;;;5047821;28;20041;-87
2021/07/07 01:17:46;;;;;;;0.10;0.10;;;;;;;;;;5031034;28;20057;-87
2021/07/07 01:20:15;;;;;;;0.10;0.10;;;;;;;;;;5031282;28;20041;-87
2021/07/07 01:22:41;;;;;;;0.10;0.10;;;;;;;;;;5047689;28;20037;-87
2021/07/07 01:25:08;;;;;;;0.20;0.20;;;;;;;;;;5047840;28;20104;-87
2021/07/07 01:27:35;;;;;;;0.10;0.10;;;;;;;;;;5032502;28;20460;-88
2021/07/07 01:30:01;;;;;;;0.10;0.10;;;;;;;;;;5047652;28;20048;-87
2021/07/07 01:32:27;;;;;;;0.10;0.10;;;;;;;;;;5031062;28;20044;-87
2021/07/07 01:34:53;;;;;;;0.10;0.10;;;;;;;;;;5031047;28;20045;-87
2021/07/07 01:37:19;;;;;;;0.10;0.10;;;;;;;;;;5047511;28;20034;-87
2021/07/07 01:39:45;;;;;;;0.10;0.10;;;;;;;;;;5047580;28;20398;-87
2021/07/07 01:42:11;;;;;;;0.10;0.10;;;;;;;;;;5047583;28;20045;-88
2021/07/07 01:44:37;;;;;;;0.10;0.10;;;;;;;;;;5014922;28;20067;-87
2021/07/07 01:47:06;;;;;;;0.20;0.20;;;;;;;;;;5047543;28;20120;-88
2021/07/07 01:49:32;;;;;;;0.10;0.10;;;;;;;;;;5030977;28;20377;-87
2021/07/07 01:51:58;;;;;;;0.10;0.10;;;;;;;;;;5030850;28;20042;-86
2021/07/07 01:54:24;;;;;;;0.10;0.10;;;;;;;;;;5030956;28;20495;-87
2021/07/07 01:56:50;;;;;;;0.10;0.10;;;;;;;;;;5030844;28;20120;-87
2021/07/07 01:59:16;;;;;;;0.10;0.10;;;;;;;;;;5030879;28;20097;-87
2021/07/07 02:01:42;;;;;;;0.10;0.10;;;;;;;;;;5030793;28;20128;-87
2021/07/07 02:04:08;;;;;;;0.20;0.20;;;;;;;;;;5049863;28;20091;-87
2021/07/07 02:06:35;;;;;;;0.10;0.10;;;;;;;;;;5051193;28;20068;-87
2021/07/07 02:09:01;;;;;;;0.10;0.10;;;;;;;;;;5051357;28;20037;-87
2021/07/07 02:11:27;;;;;;;0.10;0.10;;;;;;;;;;5051252;28;20527;-87
2021/07/07 02:13:53;;;;;;;0.10;0.10;;;;;;;;;;5034643;28;20389;-87
2021/07/07 02:16:19;;;;;;;0.10;0.10;;;;;;;;;;5034780;28;20418;-87
2021/07/07 02:18:45;;;;;;;0.20;0.20;;;;;;;;;;5051063;28;20042;-87
2021/07/07 02:21:12;;;;;;;0.10;0.10;;;;;;;;;;5051272;28;20056;-87
2021/07/07 02:23:38;;;;;;;0.10;0.10;;;;;;;;;;5034724;28;20037;-87
2021/07/07 02:26:04;;;;;;;0.10;0.10;;;;;;;;;;5051134;28;20038;-87
2021/07/07 02:28:30;;;;;;;0.10;0.10;;;;;;;;;;5034305;28;20041;-87
2021/07/07 02:30:56;;;;;;;0.10;0.10;;;;;;;;;;5034285;28;20382;-87
2021/07/07 02:33:23;;;;;;;0.10;0.10;;;;;;;;;;5050993;28;20042;-85
2021/07/07 02:35:49;;;;;;;0.10;0.10;;;;;;;;;;5034317;28;20041;-87
2021/07/07 02:38:16;;;;;;;0.10;0.10;;;;;;;;;;5035550;28;20117;-87
2021/07/07 02:40:42;;;;;;;0.10;0.10;;;;;;;;;;5051088;28;20460;-87
2021/07/07 02:43:09;;;;;;;0.10;0.10;;;;;;;;;;5034348;28;20042;-87
2021/07/07 02:45:35;;;;;;;0.10;0.10;;;;;;;;;;5050608;28;20072;-87
2021/07/07 02:48:02;;;;;;;0.10;0.10;;;;;;;;;;5050463;28;20034;-87
2021/07/07 02:50:28;;;;;;;0.10;0.10;;;;;;;;;;5050444;28;20048;-87
2021/07/07 02:52:54;;;;;;;0.10;0.10;;;;;;;;;;5035150;28;20051;-87
2021/07/07 02:55:20;;;;;;;0.10;0.10;;;;;;;;;;5050551;28;20045;-87
2021/07/07 03:00:26;;;;;;;0.10;0.10;;;;;;;;;;5049064;28;20041;-87
2021/07/07 03:02:52;;;;;;;0.10;0.10;;;;;;;;;;5033747;28;20048;-87
2021/07/07 03:05:18;;;;;;;0.20;0.20;;;;;;;;;;5050245;28;20044;-87
2021/07/07 03:07:44;;;;;;;0.10;0.10;;;;;;;;;;5033825;28;20041;-87
2021/07/07 03:10:10;;;;;;;0.10;0.10;;;;;;;;;;5050252;28;20034;-87
2021/07/07 03:12:37;;;;;;;0.10;0.10;;;;;;;;;;5050041;28;20064;-88
2021/07/07 03:15:03;;;;;;;0.20;0.20;;;;;;;;;;5049261;28;20040;-87
2021/07/07 03:17:29;;;;;;;0.10;0.10;;;;;;;;;;5034356;28;20054;-87
2021/07/07 03:19:55;;;;;;;0.10;0.10;;;;;;;;;;5050184;28;20436;-87
2021/07/07 03:22:23;;;;;;;4.30;0.30;;;;;;;;;;5033390;28;20041;-87
2021/07/07 03:24:49;;;;;;;0.17;0.17;;;;;;;;;;5033374;28;20156;-87
2021/07/07 03:27:15;;;;;;;0.10;0.10;;;;;;;;;;5049989;28;20065;-87
2021/07/07 03:29:41;;;;;;;0.10;0.10;;;;;;;;;;5033326;28;20068;-87
2021/07/07 03:32:07;;;;;;;0.10;0.10;;;;;;;;;;5034347;28;20115;-87
2021/07/07 03:34:33;;;;;;;0.10;0.10;;;;;;;;;;5033225;28;20037;-87
2021/07/07 03:36:59;;;;;;;0.10;0.10;;;;;;;;;;5033115;28;20496;-87
2021/07/07 03:39:28;;;;;;;0.20;0.20;;;;;;;;;;5033151;28;20072;-87
2021/07/07 03:41:54;;;;;;;0.10;0.10;;;;;;;;;;5033057;28;20041;-87
2021/07/07 03:44:20;;;;;;;0.30;0.30;;;;;;;;;;5034319;28;20033;-87
2021/07/07 03:46:46;;;;;;;0.10;0.10;;;;;;;;;;5033010;28;20052;-87
2021/07/07 03:49:12;;;;;;;0.10;0.10;;;;;;;;;;5033076;28;20389;-87
2021/07/07 03:51:38;;;;;;;0.10;0.10;;;;;;;;;;5032820;28;20041;-87
2021/07/07 03:54:05;;;;;;;0.10;0.10;;;;;;;;;;5049379;28;20036;-87
2021/07/07 03:56:31;;;;;;;0.10;0.10;;;;;;;;;;5049422;28;20485;-87
2021/07/07 03:58:57;;;;;;;0.20;0.20;;;;;;;;;;5032741;28;20151;-87
2021/07/07 04:01:23;;;;;;;0.10;0.10;;;;;;;;;;5032691;28;20112;-86
2021/07/07 04:03:49;;;;;;;0.10;0.10;;;;;;;;;;5032665;28;20366;-86
2021/07/07 04:06:15;;;;;;;0.20;0.20;;;;;;;;;;5032678;28;20495;-87
2021/07/07 04:08:41;;;;;;;0.10;0.10;;;;;;;;;;5032430;28;20041;-87
2021/07/07 04:11:07;;;;;;;0.10;0.10;;;;;;;;;;5032365;28;20056;-87
2021/07/07 04:13:33;;;;;;;0.10;0.10;;;;;;;;;;5049007;28;20049;-87
2021/07/07 04:15:59;;;;;;;0.10;0.10;;;;;;;;;;5032594;28;20039;-87
2021/07/07 04:18:25;;;;;;;0.20;0.20;;;;;;;;;;5048662;28;20432;-87
2021/07/07 04:20:51;;;;;;;0.10;0.10;;;;;;;;;;5015974;28;20057;-87
2021/07/07 04:23:19;;;;;;;0.10;0.10;;;;;;;;;;5048972;28;20037;-86
2021/07/07 04:25:47;;;;;;;0.10;0.10;;;;;;;;;;5032713;28;20042;-87
2021/07/07 04:28:13;;;;;;;0.10;0.10;;;;;;;;;;5048594;28;20120;-87
2021/07/07 04:30:39;;;;;;;0.10;0.10;;;;;;;;;;5048666;28;20069;-87
2021/07/07 04:33:05;;;;;;;0.10;0.10;;;;;;;;;;5048646;28;20029;-88
2021/07/07 04:35:31;;;;;;;0.15;0.15;;;;;;;;;;5033336;28;20057;-87
2021/07/07 04:37:57;;;;;;;0.10;0.10;;;;;;;;;;5031942;28;20493;-88
2021/07/07 04:40:25;;;;;;;0.20;0.20;;;;;;;;;;5048577;28;20037;-87
2021/07/07 04:42:51;;;;;;;0.20;0.20;;;;;;;;;;5031878;28;20116;-87
2021/07/07 04:45:17;;;;;;;0.47;0.20;;;;;;;;;;5048639;28;20033;-88
2021/07/07 04:47:44;;;;;;;0.10;0.10;;;;;;;;;;5031812;28;20408;-88
2021/07/07 04:50:33;;;;;;;0.30;0.30;;;;;;;;;;5048288;28;20127;-87
2021/07/07 04:52:59;;;;;;;0.20;0.20;;;;;;;;;;5032872;28;20090;-88
2021/07/07 04:55:25;;;;;;;0.10;0.10;;;;;;;;;;5048103;28;20076;-87
2021/07/07 04:57:52;;;;;;;0.30;0.30;;;;;;;;;;5033048;28;20041;-87
2021/07/07 05:00:20;;;;;;;0.10;0.10;;;;;;;;;;5031849;28;20040;-88
2021/07/07 05:02:46;;;;;;;0.20;0.20;;;;;;;;;;5031642;28;20039;-87
2021/07/07 05:05:13;;;;;;;0.30;0.30;;;;;;;;;;5048172;28;20037;-89
2021/07/07 05:07:39;;;;;;;0.25;0.25;;;;;;;;;;5031477;28;20042;-88
2021/07/07 05:10:05;;;;;;;0.10;0.10;;;;;;;;;;5031506;28;20033;-88
2021/07/07 05:12:31;;;;;;;0.13;0.13;;;;;;;;;;5031289;28;20048;-88
2021/07/07 05:14:57;;;;;;;0.20;0.20;;;;;;;;;;5031440;28;20044;-88
2021/07/07 05:17:24;;;;;;;0.13;0.13;;;;;;;;;;5048480;28;20080;-87
2021/07/07 05:19:51;;;;;;;0.10;0.10;;;;;;;;;;5031376;28;20045;-87
2021/07/07 05:22:17;;;;;;;0.10;0.10;;;;;;;;;;5031261;28;20073;-87
2021/07/07 05:24:45;;;;;;;0.10;0.10;;;;;;;;;;5031234;28;20045;-88
2021/07/07 05:27:11;;;;;;;0.10;0.10;;;;;;;;;;5014546;28;20045;-88
2021/07/07 05:29:37;;;;;;;0.10;0.10;;;;;;;;;;5031357;28;20095;-89
2021/07/07 05:32:04;;;;;;;0.10;0.10;;;;;;;;;;5031155;28;20481;-87
2021/07/07 05:34:30;;;;;;;0.10;0.10;;;;;;;;;;5031312;28;20108;-87
2021/07/07 05:36:56;;;;;;;0.10;0.10;;;;;;;;;;5047439;28;20079;-87
2021/07/07 05:39:22;;;;;;;0.20;0.20;;;;;;;;;;5047349;28;20033;-87
2021/07/07 05:41:48;;;;;;;0.10;0.10;;;;;;;;;;5031051;28;20476;-87
2021/07/07 05:44:14;;;;;;;0.10;0.10;;;;;;;;;;5047687;28;20037;-88
2021/07/07 05:46:40;;;;;;;0.20;0.20;;;;;;;;;;5047639;28;20068;-88
2021/07/07 05:49:06;;;;;;;0.10;0.10;;;;;;;;;;5047586;28;20041;-87
2021/07/07 05:51:32;;;;;;;0.20;0.20;;;;;;;;;;5047304;28;20046;-88
2021/07/07 05:53:59;;;;;;;0.10;0.10;;;;;;;;;;5032212;28;20060;-87
2021/07/07 05:56:25;;;;;;;0.10;0.10;;;;;;;;;;5031205;28;20041;-87
2021/07/07 05:58:51;;;;;;;0.10;0.10;;;;;;;;;;5031310;28;20045;-88
2021/07/07 06:01:17;;;;;;;0.10;0.10;;;;;;;;;;5030836;28;20045;-89
2021/07/07 06:03:43;;;;;;;0.20;0.20;;;;;;;;;;5030862;28;20128;-88
2021/07/07 06:06:09;;;;;;;0.10;0.10;;;;;;;;;;5047453;28;20125;-88
2021/07/07 06:08:35;;;;;;;0.10;0.10;;;;;;;;;;5030661;28;20072;-88
2021/07/07 06:11:01;;;;;;;0.10;0.10;;;;;;;;;;5030683;28;20041;-87
2021/07/07 06:13:27;;;;;;;0.10;0.10;;;;;;;;;;5047502;28;20041;-88
2021/07/07 06:15:53;;;;;;;0.10;0.10;;;;;;;;;;5030798;28;20038;-88
2021/07/07 06:18:19;;;;;;;0.20;0.20;;;;;;;;;;5047137;28;20099;-88
2021/07/07 06:20:45;;;;;;;0.10;0.10;;;;;;;;;;5047080;28;20038;-88
2021/07/07 06:23:11;;;;;;;0.20;0.20;;;;;;;;;;5047198;28;20041;-88
2021/07/07 06:25:38;;;;;;;0.10;0.10;;;;;;;;;;5030576;28;20045;-87
2021/07/07 06:28:04;;;;;;;0.10;0.10;;;;;;;;;;5046925;28;20042;-88
2021/07/07 06:30:30;;;;;;;0.10;0.10;;;;;;;;;;5047293;28;20040;-89
2021/07/07 06:33:00;;;;;;;0.10;0.10;;;;;;;;;;5030813;28;20217;-87
2021/07/07 06:35:26;;;;;;;0.10;0.10;;;;;;;;;;5030589;28;20125;-90
2021/07/07 06:37:52;;;;;;;0.20;0.20;;;;;;;;;;5047321;28;20087;-88
2021/07/07 06:40:19;;;;;;;0.28;0.28;;;;;;;;;;5030542;28;20030;-87
2021/07/07 06:42:45;;;;;;;0.20;0.20;;;;;;;;;;5046971;28;20049;-87
2021/07/07 06:45:12;;;;;;;0.17;0.17;;;;;;;;;;5046956;28;20493;-87
2021/07/07 06:47:38;;;;;;;0.10;0.10;;;;;;;;;;5031496;28;20497;-88
2021/07/07 06:50:04;;;;;;;0.10;0.10;;;;;;;;;;5047353;28;20555;-88
2021/07/07 06:52:31;;;;;;;0.10;0.10;;;;;;;;;;5033880;28;20040;-87
2021/07/07 06:54:57;;;;;;;0.10;0.10;;;;;;;;;;5050577;28;20048;-88
2021/07/07 06:57:23;;;;;;;0.10;0.10;;;;;;;;;;5033821;28;20044;-88
2021/07/07 06:59:49;;;;;;;0.10;0.10;;;;;;;;;;5033949;28;20080;-87
2021/07/07 07:02:15;;;;;;;0.10;0.10;;;;;;;;;;5050372;28;20037;-87
2021/07/07 07:04:41;;;;;;;0.20;0.20;;;;;;;;;;5034971;28;20551;-88
2021/07/07 07:07:07;;;;;;;0.10;0.10;;;;;;;;;;5033669;28;20114;-87
2021/07/07 07:09:33;;;;;;;0.10;0.10;;;;;;;;;;5033681;28;20087;-88
2021/07/07 07:11:59;;;;;;;0.10;0.10;;;;;;;;;;5051377;28;20037;-87
2021/07/07 07:14:26;;;;;;;0.13;0.13;;;;;;;;;;5033750;28;20041;-87
2021/07/07 07:16:52;;;;;;;0.10;0.10;;;;;;;;;;5033589;28;20482;-88
2021/07/07 07:19:18;;;;;;;0.10;0.10;;;;;;;;;;5050026;28;20042;-88
2021/07/07 07:21:44;;;;;;;0.20;0.20;;;;;;;;;;5033465;28;20042;-88
2021/07/07 07:24:10;;;;;;;0.10;0.10;;;;;;;;;;5033553;28;20112;-87
2021/07/07 07:26:37;;;;;;;0.10;0.10;;;;;;;;;;5017171;28;20100;-88
2021/07/07 07:29:03;;;;;;;0.10;0.10;;;;;;;;;;5049951;28;20047;-88
2021/07/07 07:31:29;;;;;;;0.20;0.20;;;;;;;;;;5033349;28;20096;-88
2021/07/07 07:33:55;;;;;;;0.10;0.10;;;;;;;;;;5033402;28;20374;-88
2021/07/07 07:36:22;;;;;;;0.10;0.10;;;;;;;;;;5033343;28;20060;-88
2021/07/07 07:39:04;;;;;;;0.13;0.13;;;;;;;;;;5049119;28;20042;-88
2021/07/07 07:41:31;;;;;;;0.22;0.22;;;;;;;;;;5048373;28;20037;-88
2021/07/07 07:43:57;;;;;;;0.13;0.13;;;;;;;;;;5033147;28;20077;-88
2021/07/07 07:46:27;;;;;;;0.20;0.20;;;;;;;;;;5033045;28;20123;-88
2021/07/07 07:48:54;;;;;;;0.10;0.10;;;;;;;;;;5049659;28;20041;-90
2021/07/07 07:51:20;;;;;;;0.10;0.10;;;;;;;;;;5049317;28;20046;-87
2021/07/07 07:53:48;;;;;;;0.10;0.10;;;;;;;;;;5032858;28;20046;-88
2021/07/07 07:56:17;;;;;;;0.10;0.10;;;;;;;;;;5048985;28;20083;-87
2021/07/07 07:58:43;;;;;;;0.20;0.20;;;;;;;;;;5049276;28;20473;-89
2021/07/07 08:01:10;;;;;;;0.20;0.20;;;;;;;;;;5033826;28;20116;-88
2021/07/07 08:03:36;;;;;;;0.10;0.10;;;;;;;;;;5032803;28;20073;-87
2021/07/07 08:06:02;;;;;;;0.20;0.20;;;;;;;;;;5049445;28;20069;-87
2021/07/07 08:08:28;;;;;;;0.10;0.10;;;;;;;;;;5032783;28;20174;-88
2021/07/07 08:10:54;;;;;;;0.10;0.10;;;;;;;;;;5049412;28;20086;-89
2021/07/07 08:13:20;;;;;;;0.10;0.10;;;;;;;;;;5049194;28;20052;-91
2021/07/07 08:15:46;;;;;;;0.10;0.10;;;;;;;;;;5049374;28;20041;-91
2021/07/07 08:18:12;;;;;;;0.15;0.15;;;;;;;;;;5049184;28;20574;-90
2021/07/07 08:20:39;;;;;;;0.10;0.10;;;;;;;;;;5032649;28;20033;-88
2021/07/07 08:23:05;;;;;;;0.10;0.10;;;;;;;;;;5032389;28;20041;-89
2021/07/07 08:25:31;;;;;;;0.20;0.20;;;;;;;;;;5049030;28;20041;-88
2021/07/07 08:27:59;;;;;;;0.20;0.20;;;;;;;;;;5048867;28;20045;-88
2021/07/07 08:30:25;;;;;;;0.10;0.10;;;;;;;;;;5032416;28;20033;-89
2021/07/07 08:32:51;;;;;;;0.10;0.10;;;;;;;;;;5048772;28;20033;-88
2021/07/07 08:35:17;;;;;;;0.10;0.10;;;;;;;;;;5032444;28;20382;-88
2021/07/07 08:37:43;;;;;;;0.10;0.10;;;;;;;;;;5048655;28;20049;-88
2021/07/07 08:40:10;;;;;;;0.13;0.13;;;;;;;;;;5048577;28;20534;-88
2021/07/07 08:42:36;;;;;;;0.10;0.10;;;;;;;;;;5032090;28;20561;-87
2021/07/07 08:45:07;;;;;;;0.10;0.10;;;;;;;;;;5048855;28;20048;-89
2021/07/07 08:47:33;;;;;;;0.10;0.10;;;;;;;;;;5032076;28;20033;-87
2021/07/07 08:50:00;;;;;;;0.20;0.20;;;;;;;;;;5032448;28;20520;-88
2021/07/07 08:52:26;;;;;;;0.10;0.10;;;;;;;;;;5033945;28;20034;-88
2021/07/07 08:54:52;;;;;;;0.20;0.20;;;;;;;;;;5032642;28;20041;-91
2021/07/07 08:57:19;;;;;;;0.10;0.10;;;;;;;;;;5033325;28;20037;-88
2021/07/07 08:59:46;;;;;;;0.10;0.10;;;;;;;;;;5050031;28;20041;-88
2021/07/07 09:02:12;;;;;;;0.20;0.20;;;;;;;;;;5049746;28;20068;-88
2021/07/07 09:04:45;;;;;;;0.10;0.10;;;;;;;;;;5033647;28;20041;-88
2021/07/07 09:07:14;;;;;;;0.20;0.20;;;;;;;;;;5049364;28;20496;-88
2021/07/07 09:09:44;;;;;;;0.20;0.20;;;;;;;;;;5033509;28;20041;-89
2021/07/07 09:12:18;;;;;;;0.20;0.20;;;;;;;;;;5047772;28;20065;-89
2021/07/07 09:14:46;;;;;;;0.20;0.20;;;;;;;;;;5048125;28;20079;-88
2021/07/07 09:17:16;;;;;;;0.20;0.20;;;;;;;;;;5048293;28;20049;-89
2021/07/07 09:19:42;;;;;;;0.10;0.10;;;;;;;;;;5033354;28;20049;-90
2021/07/07 09:22:11;;;;;;;0.10;0.10;;;;;;;;;;5048191;28;20037;-89
2021/07/07 09:25:01;;;;;;;0.20;0.20;;;;;;;;;;5019869;28;20111;-89
2021/07/07 09:27:47;;;;;;;0.20;0.20;;;;;;;;;;5019600;28;20046;-89
2021/07/07 09:30:27;;;;;;;0.20;0.20;;;;;;;;;;5020022;28;20064;-89
2021/07/07 09:33:14;;;;;;;0.20;0.20;;;;;;;;;;5021793;28;20052;-89
2021/07/07 09:35:43;;;;;;;0.30;0.30;;;;;;;;;;5032811;28;20047;-89
2021/07/07 09:38:09;;;;;;;0.20;0.20;;;;;;;;;;5032043;28;20053;-89
2021/07/07 09:40:42;;;;;;;0.10;0.10;;;;;;;;;;5048727;28;20059;-89
2021/07/07 09:43:28;;;;;;;0.20;0.20;;;;;;;;;;5019015;28;20709;-89
2021/07/07 09:45:54;;;;;;;0.20;0.20;;;;;;;;;;5031603;28;20049;-89
2021/07/07 09:48:20;;;;;;;0.20;0.20;;;;;;;;;;5047815;28;20116;-90
2021/07/07 09:50:46;;;;;;;0.20;0.20;;;;;;;;;;5031481;28;20056;-91
2021/07/07 09:53:22;;;;;;;0.20;0.20;;;;;;;;;;5031349;28;20401;-90
2021/07/07 09:55:48;;;;;;;0.40;0.40;;;;;;;;;;5031145;28;20048;-90
2021/07/07 09:58:17;;;;;;;0.20;0.20;;;;;;;;;;5031025;28;20042;-89
2021/07/07 10:00:43;;;;;;;0.20;0.20;;;;;;;;;;5031265;28;20400;-89
2021/07/07 10:03:30;;;;;;;0.20;0.20;;;;;;;;;;5031510;28;20404;-89
2021/07/07 10:06:16;;;;;;;0.20;0.20;;;;;;;;;;5032440;28;20469;-89
2021/07/07 10:09:02;;;;;;;3.38;0.82;;;;;;;;;;5017856;28;20084;-89
2021/07/07 10:11:28;;;;;;;0.20;0.20;;;;;;;;;;5030949;28;20045;-91
2021/07/07 10:13:54;;;;;;;0.20;0.20;;;;;;;;;;5048863;28;20030;-89
2021/07/07 10:16:32;;;;;;;0.20;0.20;;;;;;;;;;5030655;28;20044;-89
2021/07/07 10:19:19;;;;;;;0.43;0.43;;;;;;;;;;5031199;28;20045;-89
2021/07/07 10:21:48;;;;;;;0.40;0.40;;;;;;;;;;5031191;28;20051;-90
2021/07/07 10:24:19;;;;;;;0.20;0.20;;;;;;;;;;5015676;28;20135;-89
2021/07/07 10:26:45;;;;;;;0.20;0.20;;;;;;;;;;5051129;28;20037;-90
2021/07/07 10:29:12;;;;;;;0.32;0.32;;;;;;;;;;5051335;28;20073;-89
2021/07/07 10:31:52;;;;;;;0.20;0.20;;;;;;;;;;5034779;28;20228;-90
2021/07/07 10:34:19;;;;;;;0.20;0.20;;;;;;;;;;5051055;28;20394;-90
2021/07/07 10:36:45;;;;;;;0.20;0.20;;;;;;;;;;5034520;28;20044;-89
2021/07/07 10:39:11;;;;;;;0.20;0.20;;;;;;;;;;5050952;28;20113;-89
2021/07/07 10:41:47;;;;;;;0.20;0.20;;;;;;;;;;5034638;28;20041;-89
2021/07/07 10:44:25;;;;;;;0.73;0.20;;;;;;;;;;5034786;28;20034;-90
2021/07/07 10:47:02;;;;;;;0.20;0.20;;;;;;;;;;5035487;28;20049;-88
2021/07/07 10:49:42;;;;;;;0.20;0.20;;;;;;;;;;5034382;28;20037;-88
2021/07/07 10:52:08;;;;;;;0.10;0.10;;;;;;;;;;5034192;28;20092;-89
2021/07/07 10:54:36;;;;;;;0.20;0.20;;;;;;;;;;5034366;28;20428;-89
2021/07/07 10:57:03;;;;;;;0.10;0.10;;;;;;;;;;5033940;28;20103;-89
2021/07/07 10:59:35;;;;;;;0.20;0.20;;;;;;;;;;5033956;28;20468;-89
2021/07/07 11:02:08;;;;;;;0.20;0.20;;;;;;;;;;5034019;28;20041;-89
2021/07/07 11:04:34;;;;;;;0.50;0.50;;;;;;;;;;5034000;28;20076;-88
2021/07/07 11:07:20;;;;;;;0.20;0.20;;;;;;;;;;5035173;28;20045;-89
2021/07/07 11:09:52;;;;;;;0.32;0.32;;;;;;;;;;5035159;28;20041;-90
2021/07/07 11:12:18;;;;;;;0.20;0.20;;;;;;;;;;5017231;28;20045;-89
2021/07/07 11:14:58;;;;;;;0.20;0.20;;;;;;;;;;5050396;28;20037;-89
2021/07/07 11:17:24;;;;;;;0.32;0.32;;;;;;;;;;5033565;28;20140;-91
2021/07/07 11:19:51;;;;;;;0.20;0.20;;;;;;;;;;5050179;28;20117;-89
2021/07/07 11:22:18;;;;;;;0.15;0.15;;;;;;;;;;5033579;28;20054;-89
2021/07/07 11:24:44;;;;;;;0.20;0.20;;;;;;;;;;5033791;28;20116;-89
2021/07/07 11:27:10;;;;;;;0.20;0.20;;;;;;;;;;5050028;28;20037;-89
2021/07/07 11:29:36;;;;;;;0.20;0.20;;;;;;;;;;5033665;28;20075;-88
2021/07/07 11:32:21;;;;;;;0.20;0.20;;;;;;;;;;5033453;28;20041;-89
2021/07/07 11:34:48;;;;;;;0.20;0.20;;;;;;;;;;5033622;28;20083;-89
2021/07/07 11:37:14;;;;;;;0.10;0.10;;;;;;;;;;5049272;28;20033;-88
2021/07/07 11:39:40;;;;;;;0.10;0.10;;;;;;;;;;5033518;28;20560;-92
2021/07/07 11:42:07;;;;;;;0.20;0.20;;;;;;;;;;5033374;28;20425;-89
2021/07/07 11:44:40;;;;;;;0.10;0.10;;;;;;;;;;5049893;28;20029;-89
2021/07/07 11:47:06;;;;;;;0.20;0.20;;;;;;;;;;5033084;28;20044;-89
2021/07/07 11:49:32;;;;;;;0.30;0.30;;;;;;;;;;5033109;28;20045;-89
2021/07/07 11:52:04;;;;;;;0.20;0.20;;;;;;;;;;5032814;28;20056;-89
2021/07/07 11:54:45;;;;;;;0.30;0.28;;;;;;;;;;5034221;28;20382;-89
2021/07/07 11:57:11;;;;;;;0.20;0.20;;;;;;;;;;5034245;28;20474;-89
2021/07/07 11:59:37;;;;;;;0.10;0.10;;;;;;;;;;5032898;28;20053;-89
2021/07/07 12:02:03;;;;;;;0.20;0.20;;;;;;;;;;5049307;28;20037;-89
2021/07/07 12:04:29;;;;;;;0.10;0.10;;;;;;;;;;5049202;28;20037;-89
2021/07/07 12:06:58;;;;;;;0.20;0.20;;;;;;;;;;5032673;28;20152;-88
2021/07/07 12:09:24;;;;;;;0.20;0.20;;;;;;;;;;5049288;28;20397;-89
2021/07/07 12:11:53;;;;;;;0.17;0.17;;;;;;;;;;5049257;28;20189;-88
2021/07/07 12:14:20;;;;;;;0.10;0.10;;;;;;;;;;5032490;28;20094;-88
2021/07/07 12:16:46;;;;;;;0.35;0.35;;;;;;;;;;5032458;28;20091;-88
2021/07/07 12:19:13;;;;;;;0.22;0.22;;;;;;;;;;5032441;28;20037;-89
2021/07/07 12:21:58;;;;;;;0.20;0.20;;;;;;;;;;5032578;28;20041;-88
2021/07/07 12:24:24;;;;;;;0.10;0.10;;;;;;;;;;5032280;28;20049;-89
2021/07/07 12:26:54;;;;;;;0.30;0.30;;;;;;;;;;5033651;28;20048;-89
2021/07/07 12:29:24;;;;;;;0.10;0.10;;;;;;;;;;5032394;28;20064;-88
2021/07/07 12:31:51;;;;;;;0.10;0.10;;;;;;;;;;5048717;28;20585;-88
2021/07/07 12:34:18;;;;;;;0.10;0.10;;;;;;;;;;5048803;28;20052;-89
2021/07/07 12:36:45;;;;;;;0.20;0.20;;;;;;;;;;5032255;28;20037;-88
2021/07/07 12:39:19;;;;;;;0.10;0.10;;;;;;;;;;5032239;28;20048;-89
2021/07/07 12:41:49;;;;;;;0.20;0.20;;;;;;;;;;5032678;28;20061;-89
2021/07/07 12:44:23;;;;;;;0.10;0.10;;;;;;;;;;5032454;28;20049;-88
2021/07/07 12:46:53;;;;;;;0.10;0.10;;;;;;;;;;5031805;28;20385;-88
2021/07/07 12:49:25;;;;;;;0.10;0.10;;;;;;;;;;5031224;28;20037;-88
2021/07/07 12:51:51;;;;;;;0.10;0.10;;;;;;;;;;5031885;28;20473;-90
2021/07/07 12:54:21;;;;;;;0.10;0.10;;;;;;;;;;5048478;28;20037;-89
2021/07/07 12:56:55;;;;;;;0.10;0.10;;;;;;;;;;5048300;28;20044;-90
2021/07/07 12:59:22;;;;;;;0.20;0.20;;;;;;;;;;5033028;28;20064;-90
2021/07/07 13:02:18;;;;;;;0.20;0.20;;;;;;;;;;5031822;28;20053;-89
2021/07/07 13:04:45;;;;;;;0.20;0.20;;;;;;;;;;5015310;28;20050;-89
2021/07/07 13:07:13;;;;;;;0.10;0.10;;;;;;;;;;5031546;28;20052;-88
2021/07/07 13:09:39;;;;;;;0.10;0.10;;;;;;;;;;5031724;28;20438;-89
2021/07/07 13:12:06;;;;;;;0.10;0.10;;;;;;;;;;5048125;28;20405;-89
2021/07/07 13:14:32;;;;;;;0.10;0.10;;;;;;;;;;5031747;28;20046;-89
2021/07/07 13:16:58;;;;;;;0.10;0.10;;;;;;;;;;5014931;28;20056;-89
2021/07/07 13:19:33;;;;;;;0.10;0.10;;;;;;;;;;5031259;28;20080;-89
2021/07/07 13:22:04;;;;;;;0.20;0.20;;;;;;;;;;5047846;28;20542;-89
2021/07/07 13:24:38;;;;;;;0.20;0.20;;;;;;;;;;5015251;28;20050;-88
2021/07/07 13:27:15;;;;;;;0.20;0.20;;;;;;;;;;5031304;28;20042;-89
2021/07/07 13:29:51;;;;;;;0.20;0.20;;;;;;;;;;5047718;28;20492;-89
2021/07/07 13:32:19;;;;;;;0.20;0.20;;;;;;;;;;5031139;28;20076;-89
2021/07/07 13:35:02;;;;;;;0.17;0.17;;;;;;;;;;5015797;28;20134;-89
2021/07/07 13:37:28;;;;;;;0.10;0.10;;;;;;;;;;5032449;28;20068;-89
2021/07/07 13:39:56;;;;;;;0.10;0.10;;;;;;;;;;5031332;28;20065;-89
2021/07/07 13:42:24;;;;;;;0.20;0.20;;;;;;;;;;5047343;28;20465;-88
2021/07/07 13:44:53;;;;;;;0.10;0.10;;;;;;;;;;5031360;28;20112;-88
2021/07/07 13:47:22;;;;;;;0.20;0.20;;;;;;;;;;5047327;28;20082;-89
2021/07/07 13:49:54;;;;;;;0.10;0.10;;;;;;;;;;5031554;28;20107;-89
2021/07/07 13:52:26;;;;;;;0.10;0.10;;;;;;;;;;5031199;28;20120;-88
2021/07/07 13:54:52;;;;;;;0.20;0.20;;;;;;;;;;5032600;28;20366;-90
2021/07/07 13:57:21;;;;;;;0.93;0.40;;;;;;;;;;5031218;28;20049;-89
2021/07/07 13:59:48;;;;;;;0.20;0.20;;;;;;;;;;5032994;28;20046;-89
2021/07/07 14:02:16;;;;;;;0.15;0.15;;;;;;;;;;5034996;28;20503;-88
2021/07/07 14:04:45;;;;;;;0.20;0.20;;;;;;;;;;5035116;28;20042;-89
2021/07/07 14:07:15;;;;;;;0.22;0.20;;;;;;;;;;5034896;28;20101;-89
2021/07/07 14:09:41;;;;;;;0.13;0.13;;;;;;;;;;5035079;28;20133;-88
2021/07/07 14:12:07;;;;;;;0.10;0.10;;;;;;;;;;5051496;28;20037;-89
2021/07/07 14:14:36;;;;;;;0.10;0.10;;;;;;;;;;5051482;28;20034;-88
2021/07/07 14:17:02;;;;;;;0.20;0.20;;;;;;;;;;5050671;28;20088;-89
2021/07/07 14:19:28;;;;;;;0.10;0.10;;;;;;;;;;5034726;28;20500;-89
2021/07/07 14:21:54;;;;;;;0.20;0.20;;;;;;;;;;5051124;28;20404;-89
2021/07/07 14:24:20;;;;;;;0.10;0.10;;;;;;;;;;5034753;28;20037;-88
2021/07/07 14:26:47;;;;;;;0.20;0.20;;;;;;;;;;5034508;28;20052;-88
2021/07/07 14:29:13;;;;;;;0.20;0.20;;;;;;;;;;5034606;28;20034;-88
2021/07/07 14:31:39;;;;;;;0.10;0.10;;;;;;;;;;5051054;28;20033;-88
2021/07/07 14:34:05;;;;;;;0.10;0.10;;;;;;;;;;5034355;28;20049;-88
2021/07/07 14:36:31;;;;;;;0.20;0.20;;;;;;;;;;5034317;28;20478;-89
2021/07/07 14:38:58;;;;;;;0.20;0.20;;;;;;;;;;5050901;28;20489;-87
2021/07/07 14:41:33;;;;;;;0.20;0.20;;;;;;;;;;5034767;28;20128;-88
2021/07/07 14:43:59;;;;;;;0.17;0.17;;;;;;;;;;5034415;28;20095;-88
2021/07/07 14:46:25;;;;;;;0.20;0.20;;;;;;;;;;5050972;28;20497;-89
2021/07/07 14:48:51;;;;;;;0.50;0.50;;;;;;;;;;5034507;28;20128;-89
2021/07/07 14:51:17;;;;;;;0.20;0.20;;;;;;;;;;5034079;28;20068;-88